Time;durP1;ratioP1;P1;durP2;ratioP2;P2;SDS_P1;SDS_P2;PMS_P1;PMS_P2;Temp;Humidity;BMP_temperature;BMP_pressure;BME280_temperature;BME280_humidity;BME280_pressure;Samples;Min_cycle;Max_cycle;Signal;HPM_P1;HPM_P2
2022/12/04 00:01:48;;;;;;;21.33;8.65;;;;;;;-5.93;72.98;102477.69;4988511;28;20624;-47
2022/12/04 00:04:14;;;;;;;18.38;7.63;;;;;;;-5.82;72.74;102482.78;4989494;28;20042;-49
2022/12/04 00:06:40;;;;;;;23.70;7.47;;;;;;;-6.18;72.79;102436.97;4990859;28;20121;-50
2022/12/04 00:09:07;;;;;;;21.88;7.35;;;;;;;-5.91;72.53;102486.31;4990640;28;20053;-49
2022/12/04 00:11:33;;;;;;;20.17;7.57;;;;;;;-5.92;72.38;102487.06;4981373;28;20050;-47
2022/12/04 00:14:00;;;;;;;17.58;7.75;;;;;;;-5.87;72.66;102489.19;4988328;28;20047;-51
2022/12/04 00:16:28;;;;;;;20.33;7.85;;;;;;;-5.91;72.16;102492.22;4984828;28;20556;-49
2022/12/04 00:18:54;;;;;;;17.52;7.38;;;;;;;-5.87;72.32;102485.78;4983571;28;20041;-48
2022/12/04 00:21:21;;;;;;;20.48;8.13;;;;;;;-5.78;72.13;102496.56;4984231;28;20050;-54
2022/12/04 00:23:48;;;;;;;18.70;7.63;;;;;;;-5.76;72.04;102489.97;4986807;28;20506;-52
2022/12/04 00:26:22;;;;;;;18.48;7.18;;;;;;;-5.70;71.67;102488.75;4991273;28;20509;-48
2022/12/04 00:28:48;;;;;;;18.55;7.00;;;;;;;-5.78;71.57;102474.66;4982930;28;20549;-50
2022/12/04 00:31:17;;;;;;;16.45;6.90;;;;;;;-5.76;71.79;102487.44;4976168;28;20050;-49
2022/12/04 00:33:43;;;;;;;20.33;6.03;;;;;;;-5.85;71.25;102494.31;4985119;28;20073;-51
2022/12/04 00:36:12;;;;;;;19.30;8.23;;;;;;;-6.03;71.46;102483.72;4971732;28;20610;-50
2022/12/04 00:38:39;;;;;;;20.38;8.52;;;;;;;-6.11;71.30;102484.75;4980642;28;20038;-49
2022/12/04 00:41:07;;;;;;;19.50;7.53;;;;;;;-6.09;72.01;102485.78;4989590;28;20632;-48
2022/12/04 00:43:33;;;;;;;19.07;8.20;;;;;;;-6.17;71.42;102480.09;4988022;28;20059;-49
2022/12/04 00:45:59;;;;;;;20.10;8.23;;;;;;;-6.53;71.38;102426.63;4972937;28;20053;-48
2022/12/04 00:48:25;;;;;;;18.60;8.10;;;;;;;-6.25;71.77;102473.56;4989541;28;20065;-50
2022/12/04 00:50:52;;;;;;;19.80;8.25;;;;;;;-6.34;71.66;102475.41;4989697;28;20074;-51
2022/12/04 00:53:19;;;;;;;16.65;7.72;;;;;;;-6.38;71.86;102475.91;4977416;28;20051;-54
2022/12/04 00:55:45;;;;;;;23.17;8.50;;;;;;;-6.40;72.18;102474.91;4994682;28;20046;-52
2022/12/04 00:58:11;;;;;;;17.83;7.78;;;;;;;-6.42;72.04;102477.31;4972137;28;20053;-50
2022/12/04 01:00:38;;;;;;;16.35;6.57;;;;;;;-6.41;72.09;102478.22;4969104;28;20504;-52
2022/12/04 01:03:05;;;;;;;13.60;5.90;;;;;;;-6.42;71.72;102479.84;4985891;28;20058;-48
2022/12/04 01:05:31;;;;;;;25.02;8.35;;;;;;;-6.51;71.60;102485.84;4985819;28;20047;-48
2022/12/04 01:07:57;;;;;;;14.00;5.20;;;;;;;-6.61;71.85;102478.28;4988945;28;20046;-50
2022/12/04 01:10:23;;;;;;;20.42;7.82;;;;;;;-6.67;72.21;102488.81;4972507;28;20039;-53
2022/12/04 01:12:50;;;;;;;20.10;7.10;;;;;;;-6.93;71.63;102448.81;4970816;28;20045;-51
2022/12/04 01:15:16;;;;;;;14.93;5.63;;;;;;;-6.74;71.96;102491.59;4969874;28;20162;-48
2022/12/04 01:17:44;;;;;;;11.82;5.43;;;;;;;-6.80;72.10;102500.38;4974992;28;20051;-49
2022/12/04 01:20:12;;;;;;;20.23;7.82;;;;;;;-6.87;72.20;102489.75;4970978;28;20559;-48
2022/12/04 01:22:38;;;;;;;16.95;6.88;;;;;;;-6.94;71.96;102496.72;4974647;28;20046;-53
2022/12/04 01:25:04;;;;;;;15.88;6.50;;;;;;;-6.94;72.36;102499.25;4990351;28;20046;-51
2022/12/04 01:27:30;;;;;;;9.35;4.43;;;;;;;-7.04;72.40;102495.09;4975397;28;20050;-49
2022/12/04 01:29:56;;;;;;;15.55;6.32;;;;;;;-7.06;72.33;102491.53;4972730;28;20047;-48
2022/12/04 01:32:21;;;;;;;18.52;8.10;;;;;;;-7.04;72.50;102497.63;4988077;28;20045;-49
2022/12/04 01:34:47;;;;;;;15.82;6.38;;;;;;;-7.02;72.48;102490.16;4990284;28;20042;-47
2022/12/04 01:37:13;;;;;;;20.98;6.57;;;;;;;-7.05;72.56;102498.38;4988663;28;20486;-52
2022/12/04 01:39:39;;;;;;;18.35;7.32;;;;;;;-7.08;72.40;102495.63;4988873;28;20038;-48
2022/12/04 01:42:05;;;;;;;16.65;6.30;;;;;;;-7.29;72.68;102461.00;4989239;28;20045;-49
2022/12/04 01:44:31;;;;;;;14.15;5.88;;;;;;;-7.12;72.66;102498.66;4988865;28;20395;-48
2022/12/04 01:47:00;;;;;;;13.55;6.03;;;;;;;-7.30;72.93;102479.44;4971709;28;20042;-47
2022/12/04 01:49:35;;;;;;;14.63;7.00;;;;;;;-7.17;72.76;102504.09;4984752;28;20046;-50
2022/12/04 01:52:04;;;;;;;15.20;6.35;;;;;;;-7.34;72.41;102485.03;4970475;28;20058;-53
2022/12/04 01:54:33;;;;;;;13.07;5.95;;;;;;;-7.20;72.75;102499.66;4975263;28;20151;-47
2022/12/04 01:57:07;;;;;;;13.23;5.15;;;;;;;-7.24;73.26;102501.81;4982113;28;20432;-49
2022/12/04 01:59:40;;;;;;;16.20;7.10;;;;;;;-7.30;72.83;102494.63;4970554;28;20043;-52
2022/12/04 02:02:11;;;;;;;15.98;5.45;;;;;;;-7.71;72.97;102428.06;4975510;28;20042;-50
2022/12/04 02:04:38;;;;;;;19.85;7.20;;;;;;;-7.41;72.93;102502.97;4988632;28;20042;-48
2022/12/04 02:07:04;;;;;;;14.88;6.65;;;;;;;-7.76;73.32;102447.00;4968611;28;20042;-49
2022/12/04 02:09:31;;;;;;;20.83;6.57;;;;;;;-7.50;73.50;102497.16;4983464;28;20043;-51
2022/12/04 02:12:12;;;;;;;23.50;6.97;;;;;;;-7.53;73.45;102494.34;4969371;28;20065;-49
2022/12/04 02:14:40;;;;;;;14.98;5.38;;;;;;;-7.57;73.31;102503.34;4984307;28;20140;-51
2022/12/04 02:17:15;;;;;;;14.20;6.05;;;;;;;-7.56;73.30;102496.63;4984529;28;20046;-52
2022/12/04 02:20:13;;;;;;;17.70;7.25;;;;;;;-7.56;73.48;102495.00;4979084;28;20049;-48
2022/12/04 02:23:13;;;;;;;12.93;5.97;;;;;;;-7.55;73.69;102490.84;4969920;28;20070;-47
2022/12/04 02:25:51;;;;;;;17.00;6.60;;;;;;;-7.59;73.88;102488.81;4970221;28;20049;-50
2022/12/04 02:28:35;;;;;;;16.63;7.05;;;;;;;-7.62;73.67;102498.66;4983316;28;20415;-51
2022/12/04 02:31:03;;;;;;;12.90;5.35;;;;;;;-7.67;73.99;102499.91;4974235;28;20110;-51
2022/12/04 02:33:57;;;;;;;16.52;6.13;;;;;;;-7.68;73.87;102500.66;4988941;28;20049;-48
2022/12/04 02:36:26;;;;;;;16.63;5.65;;;;;;;-7.68;73.70;102504.06;5001628;28;20046;-50
2022/12/04 02:39:08;;;;;;;14.50;5.65;;;;;;;-7.69;74.06;102504.81;4985860;28;20030;-54
2022/12/04 02:41:50;;;;;;;14.68;5.80;;;;;;;-7.69;73.87;102499.78;4970011;28;20053;-50
2022/12/04 02:44:24;;;;;;;10.75;3.85;;;;;;;-7.68;73.86;102506.59;4959890;28;20409;-49
2022/12/04 02:46:55;;;;;;;20.55;6.43;;;;;;;-7.64;74.31;102505.25;4969725;28;20065;-49
2022/12/04 02:49:26;;;;;;;14.07;5.47;;;;;;;-7.60;73.69;102519.88;4988011;28;20042;-47
2022/12/04 02:51:54;;;;;;;14.07;6.35;;;;;;;-7.62;73.91;102507.13;5004407;28;20403;-51
2022/12/04 02:54:41;;;;;;;16.75;6.63;;;;;;;-7.59;73.44;102514.97;4963233;28;20498;-51
2022/12/04 02:57:10;;;;;;;11.27;4.38;;;;;;;-7.63;73.78;102504.44;4967639;28;20056;-49
2022/12/04 02:59:42;;;;;;;16.55;6.25;;;;;;;-7.69;73.37;102504.81;4988051;28;20534;-51
2022/12/04 03:02:32;;;;;;;14.63;6.85;;;;;;;-7.68;73.96;102509.13;4986115;28;20038;-49
2022/12/04 03:05:02;;;;;;;21.75;6.88;;;;;;;-7.64;73.49;102512.81;4969561;28;20508;-49
2022/12/04 03:07:53;;;;;;;17.10;5.68;;;;;;;-7.66;73.64;102512.69;4971494;28;20061;-50
2022/12/04 03:10:40;;;;;;;14.20;5.55;;;;;;;-7.65;73.46;102513.56;4987819;28;20092;-49
2022/12/04 03:13:11;;;;;;;12.48;6.53;;;;;;;-7.72;73.39;102517.22;4987785;28;20054;-47
2022/12/04 03:15:41;;;;;;;10.98;6.18;;;;;;;-7.74;73.27;102521.22;5006685;28;20034;-51
2022/12/04 03:18:10;;;;;;;15.73;6.57;;;;;;;-7.81;73.62;102517.34;4981574;28;20051;-50
2022/12/04 03:20:37;;;;;;;10.95;5.32;;;;;;;-7.81;73.41;102529.06;4992276;28;20038;-48
2022/12/04 03:23:15;;;;;;;17.08;6.85;;;;;;;-7.86;73.41;102532.84;4991282;28;20434;-52
2022/12/04 03:26:08;;;;;;;17.48;6.55;;;;;;;-7.81;73.52;102539.16;4990448;28;20138;-51
2022/12/04 03:28:45;;;;;;;14.43;5.40;;;;;;;-7.85;73.87;102525.38;4992184;28;20089;-58
2022/12/04 03:31:11;;;;;;;20.15;5.95;;;;;;;-8.01;73.57;102496.22;4992124;28;20050;-49
2022/12/04 03:33:41;;;;;;;15.75;6.20;;;;;;;-7.88;73.45;102519.19;4988146;28;20038;-49
2022/12/04 03:36:15;;;;;;;14.98;6.30;;;;;;;-7.87;73.42;102537.00;4990561;28;20069;-49
2022/12/04 03:38:48;;;;;;;14.48;5.47;;;;;;;-7.92;73.75;102528.16;4991059;28;20058;-48
2022/12/04 03:42:04;;;;;;;17.58;6.68;;;;;;;-7.94;74.08;102528.78;4990986;28;20034;-49
2022/12/04 03:44:46;;;;;;;12.30;4.85;;;;;;;-7.98;73.38;102527.63;4941070;29;20134;-49
2022/12/04 03:47:34;;;;;;;20.55;7.00;;;;;;;-8.01;74.14;102534.06;4983619;28;20580;-49
2022/12/04 03:50:13;;;;;;;10.38;4.78;;;;;;;-8.04;73.78;102534.69;4973510;28;20054;-50
2022/12/04 03:53:01;;;;;;;16.27;5.35;;;;;;;-8.05;73.90;102539.59;4971266;28;20503;-46
2022/12/04 03:55:32;;;;;;;18.23;6.03;;;;;;;-8.06;73.55;102533.69;4975788;28;20049;-50
2022/12/04 03:58:02;;;;;;;12.90;5.72;;;;;;;-8.06;74.02;102535.31;4957939;28;20038;-49
2022/12/04 04:00:28;;;;;;;15.60;6.65;;;;;;;-8.03;74.00;102541.50;4974413;28;20056;-49
2022/12/04 04:02:56;;;;;;;13.90;6.25;;;;;;;-8.01;73.56;102544.16;4990335;28;20057;-48
2022/12/04 04:05:23;;;;;;;16.95;5.18;;;;;;;-8.00;74.15;102545.91;4990003;28;20137;-48
2022/12/04 04:07:54;;;;;;;18.60;6.55;;;;;;;-7.99;73.52;102550.22;4989811;28;20046;-47
2022/12/04 04:10:23;;;;;;;16.10;6.03;;;;;;;-7.99;73.71;102545.16;4990509;28;20073;-51
2022/12/04 04:24:14;;;;;;;17.08;6.80;;;;;;;-7.94;73.10;102554.91;4972441;28;20038;-47
2022/12/04 04:26:45;;;;;;;19.92;5.97;;;;;;;-7.92;72.97;102544.94;4970932;28;20042;-52
2022/12/04 04:29:11;;;;;;;15.93;6.45;;;;;;;-7.88;73.17;102544.44;4954794;28;20055;-52
2022/12/04 04:31:37;;;;;;;10.85;5.07;;;;;;;-7.87;73.43;102552.16;4991411;28;20116;-50
2022/12/04 04:34:26;;;;;;;15.02;5.57;;;;;;;-7.88;73.53;102552.03;4989325;28;20050;-50
2022/12/04 04:37:13;;;;;;;14.30;5.63;;;;;;;-7.87;73.31;102552.16;4973433;28;20039;-51
2022/12/04 04:39:52;;;;;;;16.92;6.57;;;;;;;-8.05;72.76;102529.50;4970709;28;20039;-49
2022/12/04 04:42:24;;;;;;;16.80;6.13;;;;;;;-7.87;73.05;102552.16;4970277;28;20630;-51
2022/12/04 04:45:05;;;;;;;9.02;4.47;;;;;;;-7.83;73.08;102569.34;4982010;28;20050;-49
2022/12/04 04:47:37;;;;;;;15.63;5.85;;;;;;;-7.86;72.84;102564.03;4990680;28;20053;-50
2022/12/04 04:50:06;;;;;;;10.27;4.40;;;;;;;-7.87;72.88;102568.94;4980471;28;20153;-52
2022/12/04 04:52:32;;;;;;;17.40;5.75;;;;;;;-7.90;72.37;102564.50;4985942;28;20116;-49
2022/12/04 04:54:59;;;;;;;12.95;5.28;;;;;;;-7.91;72.47;102577.03;4986080;28;20066;-50
2022/12/04 04:57:30;;;;;;;15.70;6.13;;;;;;;-7.94;72.79;102581.78;4980525;28;20092;-48
2022/12/04 04:59:57;;;;;;;15.55;5.57;;;;;;;-7.99;72.27;102571.31;4989561;28;20038;-47
2022/12/04 05:02:26;;;;;;;18.55;5.88;;;;;;;-8.02;72.72;102580.25;4978753;28;20526;-49
2022/12/04 05:04:52;;;;;;;13.52;6.30;;;;;;;-8.04;72.54;102567.50;4971462;28;20500;-50
2022/12/04 05:07:18;;;;;;;18.98;6.65;;;;;;;-7.95;71.93;102574.97;4970046;28;20166;-50
2022/12/04 05:09:43;;;;;;;11.48;4.88;;;;;;;-7.95;72.96;102578.38;4976872;28;20082;-48
2022/12/04 05:12:09;;;;;;;13.55;6.13;;;;;;;-8.00;72.14;102567.00;4978242;28;20588;-52
2022/12/04 05:14:35;;;;;;;16.23;6.82;;;;;;;-8.02;72.21;102572.69;4990405;28;20129;-49
2022/12/04 05:17:01;;;;;;;11.85;5.35;;;;;;;-8.05;72.54;102570.78;4989545;28;20422;-52
2022/12/04 05:22:15;;;;;;;16.05;5.88;;;;;;;-8.13;71.94;102569.25;4987362;28;20550;-51
2022/12/04 05:24:41;;;;;;;13.77;5.47;;;;;;;-8.14;72.26;102568.34;4970765;28;20090;-48
2022/12/04 05:27:07;;;;;;;15.13;5.60;;;;;;;-8.12;72.70;102576.06;4970531;28;20460;-50
2022/12/04 05:29:33;;;;;;;14.75;6.30;;;;;;;-8.11;72.48;102569.38;4972332;28;20108;-51
2022/12/04 05:31:59;;;;;;;17.42;6.10;;;;;;;-8.14;72.52;102568.34;4987934;28;20459;-48
2022/12/04 05:34:25;;;;;;;21.38;6.68;;;;;;;-8.12;72.33;102571.00;4989522;28;20189;-54
2022/12/04 05:36:51;;;;;;;11.10;4.72;;;;;;;-8.11;71.97;102571.91;4990843;28;20053;-49
2022/12/04 05:39:17;;;;;;;14.15;5.15;;;;;;;-8.32;72.24;102546.59;4970626;28;20042;-49
2022/12/04 05:41:43;;;;;;;12.52;5.15;;;;;;;-8.28;71.91;102550.25;4986930;28;20038;-50
2022/12/04 05:44:09;;;;;;;14.50;5.47;;;;;;;-8.10;71.92;102587.16;4989745;28;20050;-52
2022/12/04 05:46:35;;;;;;;17.95;5.85;;;;;;;-8.08;71.82;102580.63;4989746;28;20042;-49
2022/12/04 05:49:01;;;;;;;11.10;4.75;;;;;;;-8.06;71.60;102591.75;4988025;28;20125;-53
2022/12/04 05:51:27;;;;;;;17.13;5.32;;;;;;;-8.22;71.91;102551.69;4974076;28;20043;-50
2022/12/04 05:53:53;;;;;;;15.23;5.25;;;;;;;-8.09;71.53;102575.44;4971326;28;20584;-51
2022/12/04 05:56:19;;;;;;;12.32;4.07;;;;;;;-8.02;71.25;102576.09;4980904;28;20518;-51
2022/12/04 05:58:45;;;;;;;16.92;5.63;;;;;;;-7.93;71.13;102593.66;4989756;28;20418;-50
2022/12/04 06:01:14;;;;;;;15.02;5.50;;;;;;;-8.20;71.18;102524.91;4988247;28;20047;-52
2022/12/04 06:03:40;;;;;;;17.88;5.38;;;;;;;-8.01;70.57;102545.06;4988802;28;20038;-53
2022/12/04 06:06:18;;;;;;;11.65;4.72;;;;;;;-7.76;70.86;102589.31;4977235;28;20045;-50
2022/12/04 06:08:44;;;;;;;14.68;5.40;;;;;;;-7.70;70.46;102588.94;4982547;28;20050;-53
2022/12/04 06:11:14;;;;;;;11.23;5.70;;;;;;;-7.63;70.55;102587.81;4975978;28;20082;-51
2022/12/04 06:13:41;;;;;;;11.02;4.47;;;;;;;-7.92;70.54;102533.22;4966427;28;20050;-48
2022/12/04 06:16:15;;;;;;;12.63;5.20;;;;;;;-7.56;69.98;102585.06;4969392;28;20380;-54
2022/12/04 06:18:41;;;;;;;12.10;5.22;;;;;;;-7.65;69.70;102566.59;4970843;28;20081;-51
2022/12/04 06:21:08;;;;;;;14.00;5.60;;;;;;;-7.44;69.75;102594.56;4972532;28;20499;-47
2022/12/04 06:23:34;;;;;;;20.13;7.10;;;;;;;-7.40;69.69;102596.59;4967876;28;20530;-51
2022/12/04 06:26:04;;;;;;;15.00;5.78;;;;;;;-7.31;69.19;102594.81;4986653;28;20042;-51
2022/12/04 06:28:30;;;;;;;18.10;6.57;;;;;;;-7.19;69.28;102592.44;4985815;28;20052;-50
2022/12/04 06:31:01;;;;;;;19.13;4.97;;;;;;;-7.24;68.86;102555.78;4974648;28;20068;-49
2022/12/04 06:33:27;;;;;;;12.88;4.90;;;;;;;-7.05;68.58;102594.44;4963342;28;20100;-52
2022/12/04 06:35:58;;;;;;;15.25;5.13;;;;;;;-7.09;68.46;102601.66;4988884;28;20042;-52
2022/12/04 06:38:23;;;;;;;13.55;5.35;;;;;;;-7.42;68.08;102534.03;4988434;28;20084;-48
2022/12/04 06:40:49;;;;;;;15.77;5.63;;;;;;;-7.08;67.99;102589.16;4988640;28;20062;-50
2022/12/04 06:43:15;;;;;;;8.18;3.38;;;;;;;-6.99;67.63;102596.59;5003091;28;20426;-51
2022/12/04 06:45:41;;;;;;;16.70;6.00;;;;;;;-6.94;67.60;102596.22;4968724;28;20086;-49
2022/12/04 06:48:07;;;;;;;11.40;4.18;;;;;;;-6.92;67.26;102568.53;4985545;28;20038;-50
2022/12/04 06:50:32;;;;;;;21.90;6.85;;;;;;;-6.75;67.22;102573.31;4988823;28;20067;-49
2022/12/04 06:52:58;;;;;;;14.50;5.22;;;;;;;-6.38;67.10;102597.38;4979473;28;20058;-48
2022/12/04 06:55:24;;;;;;;14.57;5.40;;;;;;;-6.45;66.42;102602.75;4974511;28;20093;-49
2022/12/04 06:57:50;;;;;;;10.52;4.85;;;;;;;-6.30;65.96;102598.91;4973426;28;20101;-49
2022/12/04 07:00:16;;;;;;;15.27;5.65;;;;;;;-5.85;65.55;102598.19;4988108;28;20545;-54
2022/12/04 07:02:42;;;;;;;12.70;4.72;;;;;;;-5.37;64.47;102596.00;5006989;28;20049;-47
2022/12/04 07:05:09;;;;;;;16.98;6.05;;;;;;;-5.01;64.06;102593.69;4992765;28;20050;-49
2022/12/04 07:07:35;;;;;;;11.80;5.22;;;;;;;-4.75;63.09;102603.25;4989932;28;20048;-51
2022/12/04 07:10:05;;;;;;;13.15;5.55;;;;;;;-4.39;62.56;102608.47;4985622;28;20050;-53
2022/12/04 07:12:31;;;;;;;14.00;5.47;;;;;;;-3.98;61.92;102575.00;4986721;28;20042;-54
2022/12/04 07:14:56;;;;;;;16.30;5.53;;;;;;;-3.12;61.01;102605.53;4992310;28;20049;-50
2022/12/04 07:17:22;;;;;;;13.18;5.55;;;;;;;-2.93;59.30;102610.22;4990472;28;20046;-49
2022/12/04 07:19:48;;;;;;;13.48;4.93;;;;;;;-2.78;58.91;102606.13;5005816;28;20042;-50
2022/12/04 07:22:14;;;;;;;14.63;5.80;;;;;;;-2.59;58.39;102611.63;4985300;28;20108;-52
2022/12/04 07:24:40;;;;;;;14.55;6.45;;;;;;;-2.34;57.57;102617.53;4985672;28;20443;-49
2022/12/04 07:27:06;;;;;;;13.18;5.18;;;;;;;-2.07;57.14;102608.22;4980970;28;20112;-50
2022/12/04 07:29:32;;;;;;;12.98;5.75;;;;;;;-2.32;56.33;102616.00;4991532;28;20125;-51
2022/12/04 07:31:58;;;;;;;15.52;5.97;;;;;;;-2.18;55.91;102611.75;4991949;28;20042;-50
2022/12/04 07:34:24;;;;;;;16.15;6.10;;;;;;;-1.62;54.97;102620.41;4990578;28;20525;-50
2022/12/04 07:36:49;;;;;;;12.10;5.75;;;;;;;-1.42;54.62;102612.34;4990947;28;20042;-50
2022/12/04 07:39:15;;;;;;;16.10;5.32;;;;;;;-1.33;53.53;102615.44;4986551;28;20035;-52
2022/12/04 07:41:41;;;;;;;17.17;6.22;;;;;;;-1.51;52.89;102615.97;5006500;28;20411;-56
2022/12/04 07:44:07;;;;;;;15.00;5.40;;;;;;;-1.75;52.92;102617.91;4991214;28;20125;-53
2022/12/04 07:46:33;;;;;;;15.02;5.60;;;;;;;-1.69;52.99;102613.19;4991232;28;20129;-50
2022/12/04 07:48:59;;;;;;;12.55;5.50;;;;;;;-0.82;52.28;102633.75;4989449;28;20534;-48
2022/12/04 07:51:27;;;;;;;9.95;4.30;;;;;;;-0.64;50.66;102609.28;4989210;28;20058;-51
2022/12/04 07:53:53;;;;;;;13.25;5.50;;;;;;;-0.84;49.91;102620.03;4973770;28;20046;-49
2022/12/04 07:56:20;;;;;;;14.00;6.00;;;;;;;-1.26;50.25;102620.91;4990121;28;20510;-48
2022/12/04 07:58:46;;;;;;;12.55;4.93;;;;;;;-1.19;50.06;102621.34;4990085;28;20053;-47
2022/12/04 08:01:15;;;;;;;14.32;4.68;;;;;;;-0.82;50.15;102620.97;4989424;28;20533;-49
2022/12/04 08:03:42;;;;;;;13.07;5.68;;;;;;;-0.40;49.34;102625.13;4987667;28;20046;-50
2022/12/04 08:06:08;;;;;;;13.85;5.28;;;;;;;0.08;48.76;102622.78;4994820;28;20683;-48
2022/12/04 08:08:34;;;;;;;16.65;6.00;;;;;;;0.47;47.60;102615.50;4989126;28;20030;-51
2022/12/04 08:11:04;;;;;;;16.25;5.78;;;;;;;0.59;46.95;102611.03;4988730;28;20049;-47
2022/12/04 08:13:29;;;;;;;13.43;5.47;;;;;;;0.13;46.78;102616.22;4988619;28;20038;-51
2022/12/04 08:15:55;;;;;;;17.67;6.93;;;;;;;-0.33;47.42;102623.03;4987943;28;20771;-55
2022/12/04 08:18:21;;;;;;;12.05;5.43;;;;;;;-0.07;47.39;102615.16;4989449;28;20047;-54
2022/12/04 08:20:47;;;;;;;14.38;5.72;;;;;;;0.41;46.41;102616.94;4991686;28;20046;-54
2022/12/04 08:23:13;;;;;;;15.27;5.30;;;;;;;0.65;46.04;102626.72;4989994;28;20510;-49
2022/12/04 08:25:40;;;;;;;12.75;5.60;;;;;;;0.39;45.31;102613.41;4988642;28;20045;-48
2022/12/04 08:28:06;;;;;;;16.05;5.70;;;;;;;-0.05;46.37;102620.31;4986706;28;20038;-49
2022/12/04 08:30:33;;;;;;;14.10;5.60;;;;;;;-0.85;46.31;102591.06;4986021;28;20061;-49
2022/12/04 08:32:59;;;;;;;12.82;4.70;;;;;;;-0.96;47.11;102627.84;4985385;28;20125;-52
2022/12/04 08:35:25;;;;;;;13.60;5.28;;;;;;;-1.19;47.36;102589.84;4986843;28;20490;-49
2022/12/04 08:37:51;;;;;;;15.57;6.10;;;;;;;-1.10;47.03;102618.50;4986620;28;20051;-54
2022/12/04 08:40:17;;;;;;;12.35;4.90;;;;;;;-1.03;47.10;102583.19;4970365;28;20047;-49
2022/12/04 08:42:43;;;;;;;14.43;5.68;;;;;;;-0.48;46.98;102625.59;4970372;28;20531;-52
2022/12/04 08:45:09;;;;;;;10.80;5.20;;;;;;;-0.74;46.38;102592.56;4982008;28;20046;-53
2022/12/04 08:47:35;;;;;;;12.90;5.25;;;;;;;-1.11;46.31;102547.78;4986856;28;20038;-50
2022/12/04 08:50:01;;;;;;;12.25;5.50;;;;;;;-0.66;46.19;102615.97;4971514;28;20062;-52
2022/12/04 08:52:27;;;;;;;15.60;6.15;;;;;;;-0.32;45.92;102617.13;4977875;28;20126;-50
2022/12/04 08:54:53;;;;;;;13.23;5.50;;;;;;;0.33;44.78;102623.31;4968817;28;20252;-54
2022/12/04 08:57:18;;;;;;;11.50;5.18;;;;;;;0.35;43.93;102578.22;4985886;28;20079;-57
2022/12/04 08:59:44;;;;;;;9.50;4.57;;;;;;;-0.13;43.68;102611.34;4986489;28;20030;-55
2022/12/04 09:02:11;;;;;;;15.38;5.95;;;;;;;-0.46;44.49;102610.34;4985819;28;20522;-51
2022/12/04 09:04:38;;;;;;;11.40;4.60;;;;;;;-0.21;44.32;102610.91;4974875;28;20046;-50
2022/12/04 09:07:03;;;;;;;10.27;4.15;;;;;;;0.06;43.80;102613.25;4969951;28;20074;-52
2022/12/04 09:09:29;;;;;;;11.68;4.95;;;;;;;-0.47;43.90;102580.44;4977566;28;20042;-53
2022/12/04 09:11:55;;;;;;;11.82;5.18;;;;;;;-0.35;44.04;102576.03;4991520;28;20045;-51
2022/12/04 09:14:24;;;;;;;11.82;4.35;;;;;;;-0.06;43.48;102611.81;4985606;28;20060;-50
2022/12/04 09:16:53;;;;;;;9.60;3.92;;;;;;;-0.59;43.05;102565.31;4988239;28;20061;-50
2022/12/04 09:19:20;;;;;;;11.63;4.72;;;;;;;-0.06;43.07;102605.81;4987818;28;20052;-50
2022/12/04 09:21:46;;;;;;;11.32;4.93;;;;;;;0.14;42.66;102551.50;4988308;28;20074;-50
2022/12/04 09:24:12;;;;;;;12.65;5.18;;;;;;;0.48;42.38;102600.22;5004441;28;20057;-53
2022/12/04 09:26:38;;;;;;;11.95;5.65;;;;;;;1.10;42.43;102608.59;4975816;28;20585;-50
2022/12/04 09:29:04;;;;;;;8.10;4.68;;;;;;;1.40;41.21;102603.25;4988646;28;20050;-55
2022/12/04 09:31:31;;;;;;;8.75;4.32;;;;;;;1.84;40.49;102600.28;4971715;28;20481;-48
2022/12/04 09:34:00;;;;;;;11.98;4.88;;;;;;;1.48;40.31;102592.56;4985214;28;20037;-52
2022/12/04 09:36:26;;;;;;;11.23;4.53;;;;;;;1.43;40.91;102600.84;4977932;28;20557;-55
2022/12/04 09:38:53;;;;;;;10.60;4.60;;;;;;;1.37;40.47;102603.09;4981456;28;20042;-54
2022/12/04 09:42:07;;;;;;;13.40;5.97;;;;;;;0.70;40.86;102604.78;4970314;28;20541;-49
2022/12/04 09:44:41;;;;;;;10.40;4.65;;;;;;;-0.35;41.86;102560.69;4972780;28;20514;-53
2022/12/04 09:47:25;;;;;;;12.70;4.57;;;;;;;-0.73;42.73;102599.41;4987392;28;20050;-48
2022/12/04 09:50:18;;;;;;;9.98;4.65;;;;;;;-1.34;43.50;102597.47;4986624;28;20106;-51
2022/12/04 09:52:56;;;;;;;12.10;4.28;;;;;;;-1.75;43.91;102594.94;4974865;28;20561;-49
2022/12/04 09:55:36;;;;;;;11.23;4.18;;;;;;;-2.21;44.36;102550.41;4993488;28;20459;-51
2022/12/04 09:58:04;;;;;;;12.82;4.55;;;;;;;-2.39;44.74;102565.41;4998970;28;20077;-49
2022/12/04 10:00:32;;;;;;;11.80;4.28;;;;;;;-2.32;45.15;102599.81;4971507;28;20510;-54
2022/12/04 10:03:05;;;;;;;11.30;4.20;;;;;;;-2.30;45.46;102601.66;4987720;28;20038;-52
2022/12/04 10:05:52;;;;;;;11.27;4.70;;;;;;;-2.58;45.57;102591.38;4987528;28;20065;-50
2022/12/04 10:08:22;;;;;;;9.18;3.80;;;;;;;-2.77;46.24;102603.66;4977251;28;20042;-52
2022/12/04 10:11:09;;;;;;;10.13;3.70;;;;;;;-2.90;46.33;102596.00;4985649;28;20096;-50
2022/12/04 10:13:59;;;;;;;10.55;4.28;;;;;;;-3.02;46.93;102596.06;4989678;28;20395;-49
2022/12/04 10:16:47;;;;;;;8.35;4.28;;;;;;;-3.08;47.35;102587.13;4970356;28;20426;-53
2022/12/04 10:19:26;;;;;;;9.32;3.55;;;;;;;-3.12;46.84;102587.72;4969110;28;20470;-55
2022/12/04 10:22:33;;;;;;;12.40;4.50;;;;;;;-3.13;47.12;102585.94;4974917;28;20057;-53
2022/12/04 10:25:05;;;;;;;12.73;4.22;;;;;;;-3.12;47.29;102582.63;4940413;28;20089;-55
2022/12/04 10:27:35;;;;;;;10.07;3.60;;;;;;;-3.42;47.38;102539.09;4991160;28;20481;-50
2022/12/04 10:30:06;;;;;;;16.25;5.03;;;;;;;-3.21;47.40;102576.94;4975920;28;20589;-51
2022/12/04 10:32:32;;;;;;;8.90;3.67;;;;;;;-3.13;48.00;102579.19;4993568;28;20574;-51
2022/12/04 10:35:17;;;;;;;10.30;4.00;;;;;;;-3.29;47.67;102556.06;4992267;28;20038;-51
2022/12/04 10:37:43;;;;;;;13.80;3.92;;;;;;;-2.78;47.91;102573.03;4991372;28;20069;-54
2022/12/04 10:40:20;;;;;;;8.55;3.95;;;;;;;-2.30;47.02;102539.63;4959528;28;20070;-49
2022/12/04 10:42:52;;;;;;;8.55;3.55;;;;;;;-1.37;45.93;102574.34;4992056;28;20100;-52
2022/12/04 10:45:20;;;;;;;17.13;4.30;;;;;;;-1.25;44.90;102563.94;4991096;28;20065;-53
2022/12/04 10:47:47;;;;;;;10.82;3.88;;;;;;;-1.14;44.77;102533.16;4991410;28;20046;-57
2022/12/04 10:50:21;;;;;;;9.75;3.75;;;;;;;-0.66;44.45;102568.31;4991770;28;20046;-55
2022/12/04 10:52:48;;;;;;;10.25;4.53;;;;;;;-0.05;43.89;102571.72;4973381;28;20121;-53
2022/12/04 10:55:15;;;;;;;12.18;4.15;;;;;;;0.16;42.56;102572.06;4980788;28;20049;-50
2022/12/04 10:57:43;;;;;;;9.02;3.97;;;;;;;0.07;43.02;102574.09;5006024;28;20142;-52
2022/12/04 11:00:29;;;;;;;16.75;5.13;;;;;;;-0.22;42.58;102536.72;4992741;28;20034;-57
2022/12/04 11:02:58;;;;;;;11.30;3.92;;;;;;;-0.04;42.57;102568.38;4992281;28;20039;-52
2022/12/04 11:05:34;;;;;;;6.78;3.08;;;;;;;-0.18;42.75;102554.84;4991629;28;20038;-50
2022/12/04 11:08:03;;;;;;;9.98;4.50;;;;;;;-0.24;42.74;102569.84;4990146;28;20042;-49
2022/12/04 11:10:37;;;;;;;12.73;4.15;;;;;;;-0.18;42.10;102572.75;4974852;28;20089;-50
2022/12/04 11:13:15;;;;;;;8.57;4.30;;;;;;;0.24;41.99;102566.53;4991180;28;20773;-47
2022/12/04 11:15:52;;;;;;;9.82;3.75;;;;;;;0.59;41.13;102570.94;4988294;28;20045;-47
2022/12/04 11:18:30;;;;;;;7.75;3.53;;;;;;;0.71;41.02;102569.03;5003601;28;20062;-48
2022/12/04 11:21:05;;;;;;;10.52;4.65;;;;;;;0.76;41.03;102564.13;4973783;28;20037;-50
2022/12/04 11:23:42;;;;;;;10.13;4.25;;;;;;;0.87;41.14;102557.88;4991391;28;20122;-53
2022/12/04 11:26:08;;;;;;;21.65;8.02;;;;;;;1.01;40.62;102526.16;5004263;28;20517;-46
2022/12/04 11:28:36;;;;;;;11.98;4.45;;;;;;;1.47;40.50;102560.03;5006858;28;20100;-47
2022/12/04 11:31:03;;;;;;;8.05;3.83;;;;;;;1.20;40.31;102561.28;4992284;28;20050;-46
2022/12/04 11:33:34;;;;;;;10.00;3.80;;;;;;;0.98;40.86;102563.56;4990176;28;20046;-47
2022/12/04 11:36:04;;;;;;;14.02;4.22;;;;;;;0.75;40.91;102549.56;4986797;28;20514;-50
2022/12/04 11:38:32;;;;;;;14.13;4.15;;;;;;;0.62;41.05;102552.31;4987480;28;20121;-49
2022/12/04 11:40:59;;;;;;;7.05;3.45;;;;;;;0.78;40.73;102550.63;4969322;28;20034;-47
2022/12/04 11:43:29;;;;;;;8.85;3.78;;;;;;;0.53;40.82;102549.25;4990652;28;20518;-50
2022/12/04 11:46:03;;;;;;;9.20;4.38;;;;;;;0.31;41.16;102548.16;4974210;28;20046;-53
2022/12/04 11:48:31;;;;;;;9.10;4.03;;;;;;;0.02;41.49;102543.16;5004404;28;20097;-50